sensor_id;sensor_type;location;lat;lon;timestamp;pressure;altitude;pressure_sealevel;temperature;humidity
39177;BME280;24904;52.208;21.192;2023-11-22T00:01:34;101124.27;;;-0.72;74.53
39177;BME280;24904;52.208;21.192;2023-11-22T00:06:40;101119.09;;;-0.77;74.70
39177;BME280;24904;52.208;21.192;2023-11-22T00:11:45;101122.95;;;-0.75;74.71
39177;BME280;24904;52.208;21.192;2023-11-22T00:16:50;101128.40;;;-0.75;74.75
39177;BME280;24904;52.208;21.192;2023-11-22T00:21:55;101132.36;;;-0.77;74.43
39177;BME280;24904;52.208;21.192;2023-11-22T00:27:00;101133.51;;;-0.79;74.73
39177;BME280;24904;52.208;21.192;2023-11-22T00:32:06;101140.02;;;-0.78;74.52
39177;BME280;24904;52.208;21.192;2023-11-22T00:37:11;101146.27;;;-0.85;74.30
39177;BME280;24904;52.208;21.192;2023-11-22T00:42:16;101148.46;;;-0.83;74.62
39177;BME280;24904;52.208;21.192;2023-11-22T00:47:23;101152.55;;;-0.80;74.18
39177;BME280;24904;52.208;21.192;2023-11-22T00:52:28;101151.57;;;-0.89;73.73
39177;BME280;24904;52.208;21.192;2023-11-22T00:57:34;101159.13;;;-0.95;73.54
39177;BME280;24904;52.208;21.192;2023-11-22T01:02:40;101165.66;;;-1.00;73.57
39177;BME280;24904;52.208;21.192;2023-11-22T01:07:45;101157.77;;;-1.06;73.63
39177;BME280;24904;52.208;21.192;2023-11-22T01:12:50;101166.77;;;-1.04;73.69
39177;BME280;24904;52.208;21.192;2023-11-22T01:17:56;101178.36;;;-1.15;73.10
39177;BME280;24904;52.208;21.192;2023-11-22T01:23:01;101177.41;;;-1.19;73.24
39177;BME280;24904;52.208;21.192;2023-11-22T01:28:06;101180.67;;;-1.16;72.96
39177;BME280;24904;52.208;21.192;2023-11-22T01:33:14;101187.66;;;-1.21;73.09
39177;BME280;24904;52.208;21.192;2023-11-22T01:38:19;101195.02;;;-1.25;72.73
39177;BME280;24904;52.208;21.192;2023-11-22T01:43:28;101198.80;;;-1.30;72.25
39177;BME280;24904;52.208;21.192;2023-11-22T01:48:33;101203.59;;;-1.31;72.14
39177;BME280;24904;52.208;21.192;2023-11-22T01:53:40;101206.34;;;-1.32;72.83
39177;BME280;24904;52.208;21.192;2023-11-22T01:58:46;101209.58;;;-1.32;71.85
39177;BME280;24904;52.208;21.192;2023-11-22T02:03:51;101219.95;;;-1.37;71.58
39177;BME280;24904;52.208;21.192;2023-11-22T02:08:57;101215.50;;;-1.43;71.51
39177;BME280;24904;52.208;21.192;2023-11-22T02:14:02;101218.24;;;-1.44;71.60
39177;BME280;24904;52.208;21.192;2023-11-22T02:19:08;101217.65;;;-1.43;71.63
39177;BME280;24904;52.208;21.192;2023-11-22T02:24:18;101221.24;;;-1.50;71.57
39177;BME280;24904;52.208;21.192;2023-11-22T02:29:23;101226.47;;;-1.53;70.84
39177;BME280;24904;52.208;21.192;2023-11-22T02:34:28;101233.36;;;-1.53;71.34
39177;BME280;24904;52.208;21.192;2023-11-22T02:39:44;101245.05;;;-1.54;70.95
39177;BME280;24904;52.208;21.192;2023-11-22T02:44:53;101249.12;;;-1.65;70.69
39177;BME280;24904;52.208;21.192;2023-11-22T02:49:58;101243.36;;;-1.66;70.99
39177;BME280;24904;52.208;21.192;2023-11-22T02:55:03;101251.16;;;-1.63;71.09
39177;BME280;24904;52.208;21.192;2023-11-22T03:00:10;101262.14;;;-1.62;70.92
39177;BME280;24904;52.208;21.192;2023-11-22T03:05:18;101269.30;;;-1.63;71.30
39177;BME280;24904;52.208;21.192;2023-11-22T03:10:23;101265.41;;;-1.57;71.17
39177;BME280;24904;52.208;21.192;2023-11-22T03:15:28;101272.26;;;-1.59;70.53
39177;BME280;24904;52.208;21.192;2023-11-22T03:20:33;101283.52;;;-1.62;70.68
39177;BME280;24904;52.208;21.192;2023-11-22T03:25:38;101295.11;;;-1.71;70.58
39177;BME280;24904;52.208;21.192;2023-11-22T03:30:44;101303.30;;;-1.76;70.54
39177;BME280;24904;52.208;21.192;2023-11-22T03:35:49;101315.48;;;-1.79;70.77
39177;BME280;24904;52.208;21.192;2023-11-22T03:40:54;101328.06;;;-1.75;70.79
39177;BME280;24904;52.208;21.192;2023-11-22T03:45:59;101334.90;;;-1.83;70.57
39177;BME280;24904;52.208;21.192;2023-11-22T03:51:04;101340.17;;;-1.88;70.70
39177;BME280;24904;52.208;21.192;2023-11-22T03:56:09;101347.29;;;-1.89;70.86
39177;BME280;24904;52.208;21.192;2023-11-22T04:01:14;101358.70;;;-1.95;70.60
39177;BME280;24904;52.208;21.192;2023-11-22T04:06:19;101368.96;;;-1.99;70.70
39177;BME280;24904;52.208;21.192;2023-11-22T04:11:24;101392.11;;;-2.07;70.58
39177;BME280;24904;52.208;21.192;2023-11-22T04:16:32;101405.58;;;-2.13;70.40
39177;BME280;24904;52.208;21.192;2023-11-22T04:21:37;101410.47;;;-2.23;69.71
39177;BME280;24904;52.208;21.192;2023-11-22T04:26:42;101414.90;;;-2.32;69.98
39177;BME280;24904;52.208;21.192;2023-11-22T04:31:47;101424.34;;;-2.39;70.08
39177;BME280;24904;52.208;21.192;2023-11-22T04:36:52;101428.89;;;-2.45;69.93
39177;BME280;24904;52.208;21.192;2023-11-22T04:41:57;101436.42;;;-2.55;69.72
39177;BME280;24904;52.208;21.192;2023-11-22T04:47:03;101447.27;;;-2.68;69.54
39177;BME280;24904;52.208;21.192;2023-11-22T04:52:09;101454.58;;;-2.80;70.03
39177;BME280;24904;52.208;21.192;2023-11-22T04:57:14;101457.87;;;-2.87;70.19
39177;BME280;24904;52.208;21.192;2023-11-22T05:02:20;101462.08;;;-2.93;70.05
39177;BME280;24904;52.208;21.192;2023-11-22T05:07:25;101462.02;;;-2.98;70.30
39177;BME280;24904;52.208;21.192;2023-11-22T05:12:30;101466.85;;;-3.01;70.04
39177;BME280;24904;52.208;21.192;2023-11-22T05:17:35;101478.35;;;-3.01;70.48
39177;BME280;24904;52.208;21.192;2023-11-22T05:22:40;101498.95;;;-2.98;70.73
39177;BME280;24904;52.208;21.192;2023-11-22T05:27:45;101500.39;;;-3.00;70.42
39177;BME280;24904;52.208;21.192;2023-11-22T05:32:50;101501.50;;;-3.05;70.50
39177;BME280;24904;52.208;21.192;2023-11-22T05:37:56;101502.63;;;-3.10;70.03
39177;BME280;24904;52.208;21.192;2023-11-22T05:43:01;101506.60;;;-3.23;69.96
39177;BME280;24904;52.208;21.192;2023-11-22T05:48:07;101516.11;;;-3.36;69.89
39177;BME280;24904;52.208;21.192;2023-11-22T05:53:12;101521.99;;;-3.43;69.91
39177;BME280;24904;52.208;21.192;2023-11-22T05:58:22;101534.34;;;-3.51;70.52
39177;BME280;24904;52.208;21.192;2023-11-22T06:03:27;101544.08;;;-3.48;70.50
39177;BME280;24904;52.208;21.192;2023-11-22T06:08:32;101557.36;;;-3.54;70.49
39177;BME280;24904;52.208;21.192;2023-11-22T06:13:38;101564.77;;;-3.62;70.22
39177;BME280;24904;52.208;21.192;2023-11-22T06:18:43;101562.43;;;-3.59;70.27
39177;BME280;24904;52.208;21.192;2023-11-22T06:23:48;101568.73;;;-3.64;70.40
39177;BME280;24904;52.208;21.192;2023-11-22T06:28:53;101579.47;;;-3.62;70.40
39177;BME280;24904;52.208;21.192;2023-11-22T06:33:59;101588.58;;;-3.59;69.90
39177;BME280;24904;52.208;21.192;2023-11-22T06:39:05;101596.64;;;-3.57;70.21
39177;BME280;24904;52.208;21.192;2023-11-22T06:44:12;101607.85;;;-3.54;70.34
39177;BME280;24904;52.208;21.192;2023-11-22T06:49:17;101613.40;;;-3.49;70.01
39177;BME280;24904;52.208;21.192;2023-11-22T06:54:22;101618.98;;;-3.48;70.37
39177;BME280;24904;52.208;21.192;2023-11-22T06:59:27;101634.60;;;-3.49;70.06
39177;BME280;24904;52.208;21.192;2023-11-22T07:04:32;101639.46;;;-3.46;70.37
39177;BME280;24904;52.208;21.192;2023-11-22T07:09:40;101645.44;;;-3.40;70.37
39177;BME280;24904;52.208;21.192;2023-11-22T07:14:46;101650.09;;;-3.42;69.67
39177;BME280;24904;52.208;21.192;2023-11-22T07:19:53;101655.77;;;-3.42;69.79
39177;BME280;24904;52.208;21.192;2023-11-22T07:24:58;101660.02;;;-3.42;69.42
39177;BME280;24904;52.208;21.192;2023-11-22T07:30:08;101672.09;;;-3.29;70.32
39177;BME280;24904;52.208;21.192;2023-11-22T07:35:14;101676.52;;;-3.14;70.00
39177;BME280;24904;52.208;21.192;2023-11-22T07:40:20;101674.44;;;-3.07;69.52
39177;BME280;24904;52.208;21.192;2023-11-22T07:45:25;101679.09;;;-2.99;69.38
39177;BME280;24904;52.208;21.192;2023-11-22T07:50:31;101681.38;;;-2.90;69.32
39177;BME280;24904;52.208;21.192;2023-11-22T07:55:36;101682.30;;;-2.79;69.00
39177;BME280;24904;52.208;21.192;2023-11-22T08:00:42;101679.02;;;-2.66;68.39
39177;BME280;24904;52.208;21.192;2023-11-22T08:05:49;101680.77;;;-2.53;68.01
39177;BME280;24904;52.208;21.192;2023-11-22T08:10:55;101679.58;;;-2.45;67.64
39177;BME280;24904;52.208;21.192;2023-11-22T08:16:01;101667.55;;;-2.36;67.69
39177;BME280;24904;52.208;21.192;2023-11-22T08:21:06;101680.37;;;-2.19;67.24
39177;BME280;24904;52.208;21.192;2023-11-22T08:26:11;101687.36;;;-2.06;67.11
39177;BME280;24904;52.208;21.192;2023-11-22T08:31:17;101689.86;;;-1.93;66.70
39177;BME280;24904;52.208;21.192;2023-11-22T08:36:24;101688.14;;;-1.76;66.94
39177;BME280;24904;52.208;21.192;2023-11-22T08:41:29;101693.70;;;-1.61;66.09
39177;BME280;24904;52.208;21.192;2023-11-22T08:46:35;101708.19;;;-1.50;66.06
39177;BME280;24904;52.208;21.192;2023-11-22T08:51:40;101727.54;;;-1.38;65.79
39177;BME280;24904;52.208;21.192;2023-11-22T08:56:46;101727.09;;;-1.31;64.90
39177;BME280;24904;52.208;21.192;2023-11-22T09:01:51;101718.09;;;-1.28;64.51
39177;BME280;24904;52.208;21.192;2023-11-22T09:06:57;101718.70;;;-1.26;64.30
39177;BME280;24904;52.208;21.192;2023-11-22T09:12:03;101735.30;;;-1.12;65.01
39177;BME280;24904;52.208;21.192;2023-11-22T09:17:15;101750.84;;;-0.96;64.74
39177;BME280;24904;52.208;21.192;2023-11-22T09:22:20;101753.11;;;-0.88;64.67
39177;BME280;24904;52.208;21.192;2023-11-22T09:27:25;101749.69;;;-0.83;64.76
39177;BME280;24904;52.208;21.192;2023-11-22T09:32:30;101742.80;;;-0.71;64.48
39177;BME280;24904;52.208;21.192;2023-11-22T09:37:36;101741.64;;;-0.67;63.69
39177;BME280;24904;52.208;21.192;2023-11-22T09:42:41;101732.96;;;-0.54;63.90
39177;BME280;24904;52.208;21.192;2023-11-22T09:47:47;101723.65;;;-0.45;63.22
39177;BME280;24904;52.208;21.192;2023-11-22T09:52:52;101706.91;;;-0.35;63.01
39177;BME280;24904;52.208;21.192;2023-11-22T09:58:00;101713.19;;;-0.26;62.75
39177;BME280;24904;52.208;21.192;2023-11-22T10:03:07;101695.31;;;-0.23;62.06
39177;BME280;24904;52.208;21.192;2023-11-22T10:08:12;101687.92;;;-0.25;61.82
39177;BME280;24904;52.208;21.192;2023-11-22T10:13:18;101681.70;;;-0.21;61.90
39177;BME280;24904;52.208;21.192;2023-11-22T10:18:23;101688.23;;;-0.16;61.82
39177;BME280;24904;52.208;21.192;2023-11-22T10:23:31;101691.48;;;-0.13;61.33
39177;BME280;24904;52.208;21.192;2023-11-22T10:28:36;101689.73;;;-0.05;61.18
39177;BME280;24904;52.208;21.192;2023-11-22T10:33:44;101692.63;;;-0.01;60.65
39177;BME280;24904;52.208;21.192;2023-11-22T10:38:49;101693.66;;;-0.03;60.61
39177;BME280;24904;52.208;21.192;2023-11-22T10:43:55;101698.80;;;0.04;60.64
39177;BME280;24904;52.208;21.192;2023-11-22T10:49:02;101713.04;;;0.12;60.50
39177;BME280;24904;52.208;21.192;2023-11-22T10:54:07;101718.81;;;0.18;60.34
39177;BME280;24904;52.208;21.192;2023-11-22T10:59:15;101714.95;;;0.23;61.34
39177;BME280;24904;52.208;21.192;2023-11-22T11:04:27;101706.52;;;0.25;60.38
39177;BME280;24904;52.208;21.192;2023-11-22T11:09:34;101705.44;;;0.30;60.66
39177;BME280;24904;52.208;21.192;2023-11-22T11:14:40;101692.48;;;0.41;60.63
39177;BME280;24904;52.208;21.192;2023-11-22T11:19:48;101701.53;;;0.52;60.70
39177;BME280;24904;52.208;21.192;2023-11-22T11:25:03;101704.21;;;0.59;60.25
39177;BME280;24904;52.208;21.192;2023-11-22T11:30:41;101696.18;;;0.67;60.12
39177;BME280;24904;52.208;21.192;2023-11-22T11:35:49;101690.82;;;0.72;59.66
39177;BME280;24904;52.208;21.192;2023-11-22T11:40:56;101684.64;;;0.74;59.74
39177;BME280;24904;52.208;21.192;2023-11-22T11:46:11;101682.91;;;0.74;59.46
39177;BME280;24904;52.208;21.192;2023-11-22T11:51:17;101691.47;;;0.73;58.95
39177;BME280;24904;52.208;21.192;2023-11-22T11:56:23;101693.99;;;0.74;59.88
39177;BME280;24904;52.208;21.192;2023-11-22T12:01:30;101697.91;;;0.78;59.43
39177;BME280;24904;52.208;21.192;2023-11-22T12:06:35;101688.25;;;0.75;59.50
39177;BME280;24904;52.208;21.192;2023-11-22T12:11:43;101678.70;;;0.72;59.76
39177;BME280;24904;52.208;21.192;2023-11-22T12:16:52;101686.46;;;0.76;59.32
39177;BME280;24904;52.208;21.192;2023-11-22T12:21:58;101690.85;;;0.75;59.57
39177;BME280;24904;52.208;21.192;2023-11-22T12:27:04;101678.55;;;0.78;59.06
39177;BME280;24904;52.208;21.192;2023-11-22T12:32:13;101682.82;;;0.71;58.81
39177;BME280;24904;52.208;21.192;2023-11-22T12:37:21;101700.65;;;0.74;59.31
39177;BME280;24904;52.208;21.192;2023-11-22T12:42:28;101711.70;;;0.77;58.97
39177;BME280;24904;52.208;21.192;2023-11-22T12:47:35;101701.85;;;0.81;59.17
39177;BME280;24904;52.208;21.192;2023-11-22T12:52:41;101685.54;;;0.76;58.54
39177;BME280;24904;52.208;21.192;2023-11-22T12:57:58;101673.77;;;0.73;58.80
39177;BME280;24904;52.208;21.192;2023-11-22T13:03:06;101666.50;;;0.71;58.67
39177;BME280;24904;52.208;21.192;2023-11-22T13:08:14;101659.23;;;0.71;58.97
39177;BME280;24904;52.208;21.192;2023-11-22T13:13:19;101666.09;;;0.75;58.99
39177;BME280;24904;52.208;21.192;2023-11-22T13:18:24;101687.42;;;0.68;59.01
39177;BME280;24904;52.208;21.192;2023-11-22T13:23:29;101713.20;;;0.54;58.61
39177;BME280;24904;52.208;21.192;2023-11-22T13:28:35;101726.42;;;0.42;58.83
39177;BME280;24904;52.208;21.192;2023-11-22T13:33:39;101729.10;;;0.29;58.65
39177;BME280;24904;52.208;21.192;2023-11-22T13:38:47;101729.42;;;0.28;59.17
39177;BME280;24904;52.208;21.192;2023-11-22T13:43:52;101743.70;;;0.29;59.52
39177;BME280;24904;52.208;21.192;2023-11-22T13:48:57;101743.41;;;0.33;59.82
39177;BME280;24904;52.208;21.192;2023-11-22T13:54:02;101716.13;;;0.27;60.19
39177;BME280;24904;52.208;21.192;2023-11-22T13:59:09;101702.63;;;0.29;61.43
39177;BME280;24904;52.208;21.192;2023-11-22T14:04:15;101717.05;;;0.28;62.28
39177;BME280;24904;52.208;21.192;2023-11-22T14:09:20;101722.67;;;0.28;62.56
39177;BME280;24904;52.208;21.192;2023-11-22T14:14:25;101710.44;;;0.19;62.75
39177;BME280;24904;52.208;21.192;2023-11-22T14:19:30;101687.11;;;0.14;62.96
39177;BME280;24904;52.208;21.192;2023-11-22T14:24:35;101681.34;;;0.05;63.17
39177;BME280;24904;52.208;21.192;2023-11-22T14:29:43;101683.17;;;0.08;63.40
39177;BME280;24904;52.208;21.192;2023-11-22T14:34:51;101680.98;;;0.03;63.35
39177;BME280;24904;52.208;21.192;2023-11-22T14:39:58;101681.41;;;-0.02;64.24
39177;BME280;24904;52.208;21.192;2023-11-22T14:45:04;101664.04;;;-0.09;64.19
39177;BME280;24904;52.208;21.192;2023-11-22T14:50:10;101653.24;;;-0.17;64.62
39177;BME280;24904;52.208;21.192;2023-11-22T14:55:18;101652.57;;;-0.30;64.34
39177;BME280;24904;52.208;21.192;2023-11-22T15:00:24;101641.14;;;-0.39;64.29
39177;BME280;24904;52.208;21.192;2023-11-22T15:05:29;101628.56;;;-0.47;64.61
39177;BME280;24904;52.208;21.192;2023-11-22T15:10:34;101628.73;;;-0.46;65.36
39177;BME280;24904;52.208;21.192;2023-11-22T15:15:39;101641.72;;;-0.35;65.33
39177;BME280;24904;52.208;21.192;2023-11-22T15:20:44;101648.50;;;-0.30;64.70
39177;BME280;24904;52.208;21.192;2023-11-22T15:25:50;101651.90;;;-0.31;64.71
39177;BME280;24904;52.208;21.192;2023-11-22T15:30:56;101657.25;;;-0.32;64.59
39177;BME280;24904;52.208;21.192;2023-11-22T15:36:05;101649.48;;;-0.35;64.47
39177;BME280;24904;52.208;21.192;2023-11-22T15:41:10;101651.49;;;-0.39;63.93
39177;BME280;24904;52.208;21.192;2023-11-22T15:46:17;101638.98;;;-0.42;64.36
39177;BME280;24904;52.208;21.192;2023-11-22T15:51:25;101653.17;;;-0.42;64.36
39177;BME280;24904;52.208;21.192;2023-11-22T15:56:30;101662.46;;;-0.42;64.22
39177;BME280;24904;52.208;21.192;2023-11-22T16:01:35;101663.16;;;-0.43;64.12
39177;BME280;24904;52.208;21.192;2023-11-22T16:06:40;101675.45;;;-0.41;64.43
39177;BME280;24904;52.208;21.192;2023-11-22T16:11:45;101675.77;;;-0.33;64.55
39177;BME280;24904;52.208;21.192;2023-11-22T16:16:50;101676.37;;;-0.27;64.59
39177;BME280;24904;52.208;21.192;2023-11-22T16:21:55;101672.91;;;-0.21;64.33
39177;BME280;24904;52.208;21.192;2023-11-22T16:27:01;101658.42;;;-0.15;64.20
39177;BME280;24904;52.208;21.192;2023-11-22T16:32:07;101656.97;;;-0.09;64.09
39177;BME280;24904;52.208;21.192;2023-11-22T16:37:12;101658.36;;;-0.06;64.00
39177;BME280;24904;52.208;21.192;2023-11-22T16:42:17;101675.48;;;-0.05;63.86
39177;BME280;24904;52.208;21.192;2023-11-22T16:47:24;101686.55;;;-0.06;63.80
39177;BME280;24904;52.208;21.192;2023-11-22T16:52:29;101692.27;;;0.00;64.28
39177;BME280;24904;52.208;21.192;2023-11-22T16:57:35;101689.56;;;0.01;64.75
39177;BME280;24904;52.208;21.192;2023-11-22T17:02:40;101698.69;;;0.02;64.58
39177;BME280;24904;52.208;21.192;2023-11-22T17:07:45;101697.98;;;0.08;64.79
39177;BME280;24904;52.208;21.192;2023-11-22T17:12:51;101700.61;;;0.11;64.46
39177;BME280;24904;52.208;21.192;2023-11-22T17:17:56;101705.80;;;0.13;64.56
39177;BME280;24904;52.208;21.192;2023-11-22T17:23:01;101702.13;;;0.13;64.49
39177;BME280;24904;52.208;21.192;2023-11-22T17:28:07;101675.92;;;0.13;64.49
39177;BME280;24904;52.208;21.192;2023-11-22T17:33:12;101655.13;;;0.15;64.34
39177;BME280;24904;52.208;21.192;2023-11-22T17:38:17;101647.08;;;0.18;64.14
39177;BME280;24904;52.208;21.192;2023-11-22T17:43:22;101660.15;;;0.17;63.83
39177;BME280;24904;52.208;21.192;2023-11-22T17:48:28;101664.15;;;0.12;63.85
39177;BME280;24904;52.208;21.192;2023-11-22T17:53:34;101662.36;;;0.12;64.01
39177;BME280;24904;52.208;21.192;2023-11-22T17:58:39;101643.36;;;0.11;64.03
39177;BME280;24904;52.208;21.192;2023-11-22T18:03:44;101637.38;;;0.09;63.97
39177;BME280;24904;52.208;21.192;2023-11-22T18:08:49;101613.73;;;0.05;63.85
39177;BME280;24904;52.208;21.192;2023-11-22T18:13:54;101578.80;;;0.02;63.91
39177;BME280;24904;52.208;21.192;2023-11-22T18:19:02;101576.92;;;-0.01;63.86
39177;BME280;24904;52.208;21.192;2023-11-22T18:24:08;101597.24;;;-0.08;63.61
39177;BME280;24904;52.208;21.192;2023-11-22T18:29:13;101596.77;;;-0.17;63.70
39177;BME280;24904;52.208;21.192;2023-11-22T18:34:19;101606.19;;;-0.23;63.70
39177;BME280;24904;52.208;21.192;2023-11-22T18:39:24;101602.95;;;-0.30;63.97
39177;BME280;24904;52.208;21.192;2023-11-22T18:44:29;101592.92;;;-0.33;64.02
39177;BME280;24904;52.208;21.192;2023-11-22T18:49:34;101589.85;;;-0.35;64.18
39177;BME280;24904;52.208;21.192;2023-11-22T18:54:39;101582.09;;;-0.37;64.15
39177;BME280;24904;52.208;21.192;2023-11-22T18:59:44;101580.26;;;-0.39;64.20
39177;BME280;24904;52.208;21.192;2023-11-22T19:04:51;101575.09;;;-0.40;64.33
39177;BME280;24904;52.208;21.192;2023-11-22T19:09:56;101570.61;;;-0.41;64.40
39177;BME280;24904;52.208;21.192;2023-11-22T19:15:02;101577.17;;;-0.45;64.25
39177;BME280;24904;52.208;21.192;2023-11-22T19:20:10;101589.13;;;-0.53;64.20
39177;BME280;24904;52.208;21.192;2023-11-22T19:25:15;101589.02;;;-0.62;64.25
39177;BME280;24904;52.208;21.192;2023-11-22T19:30:21;101578.73;;;-0.64;64.53
39177;BME280;24904;52.208;21.192;2023-11-22T19:35:26;101559.35;;;-0.62;64.63
39177;BME280;24904;52.208;21.192;2023-11-22T19:40:31;101550.73;;;-0.63;64.85
39177;BME280;24904;52.208;21.192;2023-11-22T19:45:37;101547.23;;;-0.64;64.80
39177;BME280;24904;52.208;21.192;2023-11-22T19:50:44;101545.21;;;-0.62;64.98
39177;BME280;24904;52.208;21.192;2023-11-22T19:55:49;101542.52;;;-0.62;64.77
39177;BME280;24904;52.208;21.192;2023-11-22T20:00:54;101542.25;;;-0.64;64.70
39177;BME280;24904;52.208;21.192;2023-11-22T20:06:00;101532.55;;;-0.66;65.02
39177;BME280;24904;52.208;21.192;2023-11-22T20:11:05;101514.97;;;-0.66;65.09
39177;BME280;24904;52.208;21.192;2023-11-22T20:16:10;101504.95;;;-0.67;65.05
39177;BME280;24904;52.208;21.192;2023-11-22T20:21:15;101510.55;;;-0.67;64.90
39177;BME280;24904;52.208;21.192;2023-11-22T20:26:20;101506.34;;;-0.66;65.11
39177;BME280;24904;52.208;21.192;2023-11-22T20:31:26;101503.41;;;-0.63;65.09
39177;BME280;24904;52.208;21.192;2023-11-22T20:36:31;101506.92;;;-0.63;64.98
39177;BME280;24904;52.208;21.192;2023-11-22T20:41:36;101513.11;;;-0.61;65.05
39177;BME280;24904;52.208;21.192;2023-11-22T20:46:41;101520.33;;;-0.58;64.92
39177;BME280;24904;52.208;21.192;2023-11-22T20:51:47;101514.41;;;-0.55;65.40
39177;BME280;24904;52.208;21.192;2023-11-22T20:56:52;101484.41;;;-0.53;65.08
39177;BME280;24904;52.208;21.192;2023-11-22T21:01:57;101472.48;;;-0.52;65.18
39177;BME280;24904;52.208;21.192;2023-11-22T21:07:02;101468.27;;;-0.52;65.11
39177;BME280;24904;52.208;21.192;2023-11-22T21:12:08;101450.95;;;-0.53;64.85
39177;BME280;24904;52.208;21.192;2023-11-22T21:17:14;101450.05;;;-0.56;64.81
39177;BME280;24904;52.208;21.192;2023-11-22T21:22:21;101447.79;;;-0.55;65.17
39177;BME280;24904;52.208;21.192;2023-11-22T21:27:26;101448.80;;;-0.56;65.26
39177;BME280;24904;52.208;21.192;2023-11-22T21:32:32;101447.95;;;-0.55;65.24
39177;BME280;24904;52.208;21.192;2023-11-22T21:37:37;101444.33;;;-0.57;65.30
39177;BME280;24904;52.208;21.192;2023-11-22T21:42:42;101431.56;;;-0.64;65.49
39177;BME280;24904;52.208;21.192;2023-11-22T21:47:47;101414.05;;;-0.68;65.54
39177;BME280;24904;52.208;21.192;2023-11-22T21:52:52;101409.41;;;-0.72;65.82
39177;BME280;24904;52.208;21.192;2023-11-22T21:57:57;101393.55;;;-0.72;66.00
39177;BME280;24904;52.208;21.192;2023-11-22T22:03:02;101372.15;;;-0.71;65.90
39177;BME280;24904;52.208;21.192;2023-11-22T22:08:07;101369.75;;;-0.78;65.95
39177;BME280;24904;52.208;21.192;2023-11-22T22:13:12;101354.39;;;-0.80;66.09
39177;BME280;24904;52.208;21.192;2023-11-22T22:18:17;101347.61;;;-0.81;66.24
39177;BME280;24904;52.208;21.192;2023-11-22T22:23:23;101347.30;;;-0.83;66.22
39177;BME280;24904;52.208;21.192;2023-11-22T22:28:28;101354.66;;;-0.80;66.25
39177;BME280;24904;52.208;21.192;2023-11-22T22:33:33;101345.70;;;-0.78;66.11
39177;BME280;24904;52.208;21.192;2023-11-22T22:38:38;101345.18;;;-0.83;66.07
39177;BME280;24904;52.208;21.192;2023-11-22T22:43:43;101329.16;;;-0.83;66.24
39177;BME280;24904;52.208;21.192;2023-11-22T22:48:48;101293.87;;;-0.90;66.28
39177;BME280;24904;52.208;21.192;2023-11-22T22:53:53;101283.13;;;-0.96;66.09
39177;BME280;24904;52.208;21.192;2023-11-22T22:58:59;101268.67;;;-0.99;66.24
39177;BME280;24904;52.208;21.192;2023-11-22T23:04:05;101251.54;;;-0.99;66.10
39177;BME280;24904;52.208;21.192;2023-11-22T23:09:10;101232.53;;;-1.05;66.53
39177;BME280;24904;52.208;21.192;2023-11-22T23:14:17;101213.12;;;-1.04;66.76
39177;BME280;24904;52.208;21.192;2023-11-22T23:19:22;101210.81;;;-1.05;66.78
39177;BME280;24904;52.208;21.192;2023-11-22T23:24:27;101219.27;;;-1.04;66.71
39177;BME280;24904;52.208;21.192;2023-11-22T23:29:32;101200.33;;;-1.08;66.82
39177;BME280;24904;52.208;21.192;2023-11-22T23:34:40;101188.96;;;-1.10;66.71
39177;BME280;24904;52.208;21.192;2023-11-22T23:39:45;101167.96;;;-1.16;66.95
39177;BME280;24904;52.208;21.192;2023-11-22T23:44:50;101144.15;;;-1.17;66.87
39177;BME280;24904;52.208;21.192;2023-11-22T23:49:55;101124.15;;;-1.17;67.22
39177;BME280;24904;52.208;21.192;2023-11-22T23:55:01;101114.44;;;-1.16;67.04
